createdAt,value
2019-03-26T00:02:10.692Z,9.23
2019-03-26T00:04:43.183Z,8.70
2019-03-26T00:07:15.538Z,8.70
2019-03-26T00:09:47.845Z,8.60
2019-03-26T00:12:20.300Z,9.13
2019-03-26T00:14:52.735Z,7.92
2019-03-26T00:17:25.307Z,8.00
2019-03-26T00:19:57.572Z,8.63
2019-03-26T00:22:29.847Z,8.35
2019-03-26T00:25:03.297Z,7.85
2019-03-26T00:27:35.667Z,8.38
2019-03-26T00:30:09.546Z,8.18
2019-03-26T00:32:41.908Z,8.40
2019-03-26T00:35:14.308Z,7.30
2019-03-26T00:37:46.409Z,7.70
2019-03-26T00:40:18.512Z,7.78
2019-03-26T00:45:22.363Z,7.05
2019-03-26T00:47:54.733Z,7.35
2019-03-26T00:50:27.299Z,6.70
2019-03-26T00:53:00.002Z,6.33
2019-03-26T00:55:33.875Z,6.95
2019-03-26T00:58:06.333Z,7.50
2019-03-26T01:03:14.679Z,7.05
2019-03-26T01:05:48.552Z,6.55
2019-03-26T01:08:20.998Z,7.37
2019-03-26T01:10:53.382Z,7.05
2019-03-26T01:13:25.648Z,7.12
2019-03-26T01:15:58.309Z,6.72
2019-03-26T01:18:30.883Z,6.50
2019-03-26T01:21:03.338Z,6.90
2019-03-26T01:23:36.038Z,7.10
2019-03-26T01:26:08.742Z,7.45
2019-03-26T01:28:41.297Z,6.92
2019-03-26T01:31:14.602Z,7.28
2019-03-26T01:33:48.141Z,7.08
2019-03-26T01:36:20.631Z,7.37
2019-03-26T01:38:53.209Z,7.55
2019-03-26T01:41:25.583Z,8.13
2019-03-26T01:43:58.065Z,7.60
2019-03-26T01:46:30.466Z,7.00
2019-03-26T01:49:02.847Z,7.25
2019-03-26T01:51:35.307Z,7.37
2019-03-26T01:54:07.670Z,7.40
2019-03-26T01:56:40.185Z,7.05
2019-03-26T01:59:12.650Z,7.72
2019-03-26T02:01:46.291Z,7.75
2019-03-26T02:04:18.550Z,7.95
2019-03-26T02:06:50.881Z,8.60
2019-03-26T02:09:23.294Z,8.18
2019-03-26T02:11:55.543Z,7.85
2019-03-26T02:14:28.293Z,8.23
2019-03-26T02:17:00.676Z,7.90
2019-03-26T02:19:33.302Z,8.68
2019-03-26T02:22:05.554Z,9.18
2019-03-26T02:24:37.999Z,8.63
2019-03-26T02:27:10.386Z,8.93
2019-03-26T02:29:42.757Z,8.35
2019-03-26T02:32:15.320Z,9.75
2019-03-26T02:34:47.617Z,9.30
2019-03-26T02:37:20.047Z,9.73
2019-03-26T02:39:53.453Z,10.25
2019-03-26T02:42:25.798Z,10.10
2019-03-26T02:44:58.293Z,12.68
2019-03-26T02:47:31.294Z,9.83
2019-03-26T02:50:03.571Z,10.43
2019-03-26T02:52:35.863Z,10.10
2019-03-26T03:00:16.429Z,10.50
2019-03-26T03:05:34.194Z,10.40
2019-03-26T03:07:54.616Z,11.20
2019-03-26T03:10:26.994Z,11.45
2019-03-26T03:12:59.554Z,11.97
2019-03-26T03:15:31.828Z,14.15
2019-03-26T03:18:04.393Z,12.18
2019-03-26T03:20:36.786Z,13.25
2019-03-26T03:23:09.353Z,12.68
2019-03-26T03:25:41.625Z,13.32
2019-03-26T03:28:14.044Z,13.35
2019-03-26T03:30:46.417Z,14.15
2019-03-26T03:33:19.036Z,13.72
2019-03-26T03:35:53.099Z,14.95
2019-03-26T03:38:25.581Z,12.63
2019-03-26T03:40:57.867Z,14.47
2019-03-26T03:43:30.889Z,13.43
2019-03-26T03:46:03.525Z,13.50
2019-03-26T03:48:37.287Z,13.75
2019-03-26T03:51:12.880Z,13.87
2019-03-26T03:53:46.530Z,13.85
2019-03-26T03:56:24.033Z,14.63
2019-03-26T03:58:59.328Z,14.50
2019-03-26T04:01:31.686Z,14.60
2019-03-26T04:04:04.286Z,14.83
2019-03-26T04:06:36.615Z,14.83
2019-03-26T04:09:09.050Z,15.03
2019-03-26T04:11:41.384Z,15.43
2019-03-26T04:14:13.693Z,14.80
2019-03-26T04:16:46.292Z,15.30
2019-03-26T04:19:18.247Z,16.10
2019-03-26T04:21:50.251Z,13.80
2019-03-26T04:24:22.448Z,13.90
2019-03-26T04:29:26.312Z,13.53
2019-03-26T04:31:58.648Z,13.50
2019-03-26T04:34:31.061Z,13.95
2019-03-26T04:37:03.331Z,13.90
2019-03-26T04:39:35.297Z,13.90
2019-03-26T04:42:07.626Z,12.75
2019-03-26T04:44:40.295Z,12.60
2019-03-26T04:47:12.632Z,12.20
2019-03-26T04:49:45.299Z,12.90
2019-03-26T04:52:17.814Z,13.18
2019-03-26T04:54:50.285Z,12.95
2019-03-26T04:57:22.658Z,13.22
2019-03-26T04:59:55.290Z,12.55
2019-03-26T05:02:27.610Z,12.90
2019-03-26T05:05:00.044Z,15.48
2019-03-26T05:07:32.357Z,13.50
2019-03-26T05:10:06.308Z,12.78
2019-03-26T05:12:38.713Z,13.05
2019-03-26T05:15:11.319Z,13.75
2019-03-26T05:20:15.876Z,13.68
2019-03-26T05:22:48.670Z,14.80
2019-03-26T05:25:21.282Z,13.77
2019-03-26T05:27:53.408Z,14.43
2019-03-26T05:30:25.275Z,14.43
2019-03-26T05:32:57.504Z,14.28
2019-03-26T05:35:29.754Z,14.00
2019-03-26T05:38:02.277Z,15.50
2019-03-26T05:40:34.737Z,14.60
2019-03-26T05:43:07.289Z,15.53
2019-03-26T05:45:39.242Z,15.60
2019-03-26T05:48:11.247Z,15.10
2019-03-26T05:50:43.493Z,13.48
2019-03-26T05:53:15.843Z,15.53
2019-03-26T05:55:48.283Z,14.95
2019-03-26T05:58:20.651Z,14.15
2019-03-26T06:00:53.280Z,13.88
2019-03-26T06:03:25.763Z,15.43
2019-03-26T06:05:58.284Z,14.53
2019-03-26T06:08:30.707Z,17.17
2019-03-26T06:11:03.305Z,15.00
2019-03-26T06:13:35.682Z,14.60
2019-03-26T06:16:08.330Z,14.15
2019-03-26T06:18:40.567Z,13.80
2019-03-26T06:21:13.033Z,14.33
2019-03-26T06:23:45.448Z,13.43
2019-03-26T06:28:51.573Z,14.53
2019-03-26T06:31:24.286Z,13.88
2019-03-26T06:33:56.805Z,13.22
2019-03-26T06:36:29.356Z,13.83
2019-03-26T06:39:04.486Z,12.47
2019-03-26T06:41:37.051Z,13.50
2019-03-26T06:44:09.404Z,12.63
2019-03-26T06:49:13.348Z,11.75
2019-03-26T06:51:45.822Z,12.78
2019-03-26T06:54:18.286Z,12.93
2019-03-26T06:56:50.644Z,13.18
2019-03-26T06:59:23.019Z,12.25
2019-03-26T07:01:56.285Z,12.33
2019-03-26T07:04:28.658Z,12.43
2019-03-26T07:07:01.134Z,13.00
2019-03-26T07:09:35.288Z,11.88
2019-03-26T07:12:07.949Z,12.75
2019-03-26T07:14:40.378Z,12.88
2019-03-26T07:17:12.643Z,13.05
2019-03-26T07:19:45.025Z,13.32
2019-03-26T07:22:17.425Z,12.30
2019-03-26T07:24:51.276Z,14.05
2019-03-26T07:27:23.693Z,12.70
2019-03-26T07:29:56.287Z,13.25
2019-03-26T07:32:28.811Z,11.80
2019-03-26T07:35:01.324Z,12.50
2019-03-26T07:37:44.653Z,11.87
2019-03-26T07:40:10.011Z,12.40
2019-03-26T07:42:44.504Z,11.90
2019-03-26T07:45:17.567Z,10.65
2019-03-26T07:47:50.028Z,11.03
2019-03-26T07:50:22.719Z,10.82
2019-03-26T07:52:56.042Z,10.58
2019-03-26T07:55:32.627Z,11.57
2019-03-26T07:58:05.537Z,11.75
2019-03-26T08:00:40.267Z,12.35
2019-03-26T08:03:13.075Z,12.68
2019-03-26T08:05:45.643Z,12.33
2019-03-26T08:08:19.295Z,11.88
2019-03-26T08:10:51.675Z,12.68
2019-03-26T08:13:24.330Z,11.73
2019-03-26T08:15:58.514Z,12.50
2019-03-26T08:18:31.907Z,12.23
2019-03-26T08:21:04.369Z,12.35
2019-03-26T08:23:38.446Z,12.33
2019-03-26T08:26:10.645Z,12.65
2019-03-26T08:28:43.312Z,12.10
2019-03-26T08:31:15.360Z,12.03
2019-03-26T08:36:20.824Z,12.05
2019-03-26T08:38:53.463Z,11.22
2019-03-26T08:43:57.712Z,11.50
2019-03-26T08:46:30.530Z,10.63
2019-03-26T08:49:03.282Z,10.93
2019-03-26T08:51:39.780Z,11.65
2019-03-26T08:54:13.534Z,12.00
2019-03-26T08:56:46.248Z,11.88
2019-03-26T09:02:04.274Z,12.53
2019-03-26T09:04:36.608Z,13.78
2019-03-26T09:07:11.081Z,12.98
2019-03-26T09:09:43.513Z,13.40
2019-03-26T09:12:17.596Z,13.15
2019-03-26T09:14:50.288Z,13.05
2019-03-26T09:17:25.303Z,12.78
2019-03-26T09:19:57.781Z,12.47
2019-03-26T09:22:30.315Z,11.75
2019-03-26T09:25:02.683Z,12.00
2019-03-26T09:27:35.319Z,11.80
2019-03-26T09:30:13.633Z,11.57
2019-03-26T09:32:46.139Z,12.00
2019-03-26T09:35:20.295Z,11.45
2019-03-26T09:37:52.633Z,10.85
2019-03-26T09:40:26.625Z,11.00
2019-03-26T09:42:59.290Z,10.35
2019-03-26T09:45:32.074Z,10.88
2019-03-26T09:48:04.740Z,9.45
2019-03-26T09:50:39.044Z,9.53
2019-03-26T09:53:11.597Z,8.48
2019-03-26T09:55:44.045Z,8.88
2019-03-26T09:58:16.362Z,8.98
2019-03-26T10:03:21.298Z,9.03
2019-03-26T10:05:53.825Z,8.23
2019-03-26T10:08:26.303Z,7.95
2019-03-26T10:10:58.684Z,8.18
2019-03-26T10:13:32.490Z,8.83
2019-03-26T10:16:05.980Z,8.43
2019-03-26T10:18:41.511Z,9.50
2019-03-26T10:23:45.833Z,8.65
2019-03-26T10:26:19.290Z,9.13
2019-03-26T10:28:51.798Z,9.05
2019-03-26T10:31:24.650Z,9.05
2019-03-26T10:33:57.308Z,9.20
2019-03-26T10:36:30.037Z,8.65
2019-03-26T10:39:05.543Z,9.25
2019-03-26T10:41:36.662Z,9.28
2019-03-26T10:44:09.310Z,8.35
2019-03-26T10:46:44.464Z,7.75
2019-03-26T10:49:16.292Z,7.83
2019-03-26T10:51:49.285Z,9.28
2019-03-26T10:54:24.028Z,8.08
2019-03-26T10:56:59.069Z,8.65
2019-03-26T10:59:31.570Z,9.45
2019-03-26T11:02:04.068Z,8.55
2019-03-26T11:04:36.600Z,8.75
2019-03-26T11:07:09.328Z,9.33
2019-03-26T11:09:42.070Z,8.78
2019-03-26T11:12:14.785Z,7.72
2019-03-26T11:14:47.299Z,7.37
2019-03-26T11:17:19.634Z,7.28
2019-03-26T11:19:51.989Z,8.13
2019-03-26T11:22:24.537Z,7.60
2019-03-26T11:24:57.293Z,7.60
2019-03-26T11:30:01.551Z,5.85
2019-03-26T11:32:35.477Z,5.50
2019-03-26T11:35:10.100Z,5.28
2019-03-26T11:37:42.573Z,4.58
2019-03-26T11:40:17.291Z,4.87
2019-03-26T11:42:49.653Z,5.28
2019-03-26T11:45:22.317Z,4.75
2019-03-26T11:47:54.643Z,5.47
2019-03-26T11:50:27.288Z,5.95
2019-03-26T11:52:59.845Z,6.00
2019-03-26T11:55:32.370Z,5.90
2019-03-26T11:58:04.873Z,5.22
2019-03-26T12:00:38.615Z,5.12
2019-03-26T12:03:11.346Z,5.28
2019-03-26T12:05:43.800Z,5.40
2019-03-26T12:08:16.285Z,5.47
2019-03-26T12:10:48.665Z,5.50
2019-03-26T12:13:21.283Z,5.05
2019-03-26T12:15:54.006Z,5.08
2019-03-26T12:18:26.379Z,4.90
2019-03-26T12:23:30.486Z,5.08
2019-03-26T12:26:02.885Z,5.42
2019-03-26T12:28:35.375Z,4.72
2019-03-26T12:31:07.772Z,4.75
2019-03-26T12:33:40.295Z,4.40
2019-03-26T12:36:12.636Z,4.67
2019-03-26T12:38:45.296Z,4.15
2019-03-26T12:41:17.860Z,4.22
2019-03-26T12:43:50.410Z,4.50
2019-03-26T12:46:22.783Z,3.90
2019-03-26T12:48:55.303Z,3.42
2019-03-26T12:51:27.855Z,3.00
2019-03-26T12:54:00.709Z,2.77
2019-03-26T12:56:33.371Z,3.30
2019-03-26T12:59:06.294Z,3.50
2019-03-26T13:01:39.172Z,2.90
2019-03-26T13:04:14.116Z,2.80
2019-03-26T13:06:47.933Z,2.62
2019-03-26T13:09:20.498Z,2.85
2019-03-26T13:11:52.812Z,2.62
2019-03-26T13:14:25.298Z,2.50
2019-03-26T13:16:57.750Z,2.20
2019-03-26T13:19:31.460Z,3.08
2019-03-26T13:22:04.381Z,2.60
2019-03-26T13:27:09.970Z,2.80
2019-03-26T13:29:43.016Z,2.55
2019-03-26T13:32:15.619Z,2.65
2019-03-26T13:34:48.299Z,2.92
2019-03-26T13:37:21.923Z,3.08
2019-03-26T13:39:54.348Z,2.45
2019-03-26T13:42:26.278Z,2.70
2019-03-26T13:44:58.713Z,2.33
2019-03-26T13:47:31.303Z,2.33
2019-03-26T13:50:04.286Z,2.25
2019-03-26T13:52:37.309Z,2.17
2019-03-26T13:55:11.295Z,2.35
2019-03-26T13:57:43.763Z,2.22
2019-03-26T14:00:18.654Z,2.22
2019-03-26T14:02:51.278Z,1.90
2019-03-26T14:05:30.275Z,1.98
2019-03-26T14:08:02.782Z,2.10
2019-03-26T14:10:40.910Z,2.10
2019-03-26T14:13:09.540Z,2.55
2019-03-26T14:15:42.301Z,1.87
2019-03-26T14:18:14.747Z,1.87
2019-03-26T14:20:47.296Z,2.08
2019-03-26T14:23:19.854Z,1.92
2019-03-26T14:25:52.303Z,1.98
2019-03-26T14:28:24.586Z,1.92
2019-03-26T14:30:57.299Z,2.00
2019-03-26T14:34:07.275Z,2.17
2019-03-26T14:36:40.694Z,2.30
2019-03-26T14:39:13.610Z,3.02
2019-03-26T14:41:46.301Z,2.87
2019-03-26T14:44:18.798Z,2.62
2019-03-26T14:46:51.291Z,2.92
2019-03-26T14:49:23.895Z,2.83
2019-03-26T14:51:56.296Z,2.60
2019-03-26T14:54:28.858Z,3.20
2019-03-26T14:57:01.307Z,3.75
2019-03-26T14:59:33.679Z,3.20
2019-03-26T15:02:06.313Z,3.90
2019-03-26T15:04:38.858Z,3.27
2019-03-26T15:07:11.298Z,3.40
2019-03-26T15:12:15.850Z,3.30
2019-03-26T15:14:48.495Z,2.80
2019-03-26T15:17:21.259Z,2.70
2019-03-26T15:19:55.249Z,4.80
2019-03-26T15:22:28.056Z,3.40
2019-03-26T15:25:01.976Z,3.33
2019-03-26T15:27:35.519Z,4.40
2019-03-26T15:30:12.300Z,3.65
2019-03-26T15:32:44.695Z,3.60
2019-03-26T15:35:17.317Z,4.55
2019-03-26T15:37:49.882Z,4.30
2019-03-26T15:40:22.543Z,3.95
2019-03-26T15:42:55.040Z,3.83
2019-03-26T15:45:27.938Z,4.05
2019-03-26T15:48:00.396Z,3.65
2019-03-26T15:53:14.510Z,3.12
2019-03-26T15:55:47.297Z,3.52
2019-03-26T16:00:51.583Z,5.47
2019-03-26T16:03:24.289Z,4.75
2019-03-26T16:05:56.690Z,5.35
2019-03-26T16:08:29.292Z,5.80
2019-03-26T16:11:01.805Z,5.40
2019-03-26T16:13:35.890Z,5.28
2019-03-26T16:16:08.540Z,5.53
2019-03-26T16:18:41.352Z,6.22
2019-03-26T16:21:39.544Z,7.13
2019-03-26T16:24:29.168Z,7.65
2019-03-26T16:34:32.336Z,9.95
2019-03-26T16:37:12.229Z,11.35
2019-03-26T16:52:18.336Z,11.63
2019-03-26T16:57:58.747Z,11.70
2019-03-26T17:00:44.554Z,10.80
2019-03-26T17:03:31.197Z,12.03
2019-03-26T17:09:53.332Z,11.48
2019-03-26T17:12:25.833Z,11.63
2019-03-26T17:19:22.540Z,11.70
2019-03-26T17:22:04.926Z,10.82
2019-03-26T17:24:37.440Z,10.63
2019-03-26T17:29:50.328Z,11.57
2019-03-26T17:32:29.003Z,11.15
2019-03-26T17:35:03.333Z,10.88
2019-03-26T17:38:54.042Z,12.20
2019-03-26T17:45:09.331Z,11.03
2019-03-26T17:51:02.464Z,12.07
2019-03-26T17:57:20.425Z,10.75
2019-03-26T17:59:53.328Z,10.53
2019-03-26T18:02:26.300Z,10.88
2019-03-26T18:05:03.281Z,10.90
2019-03-26T18:07:35.728Z,11.35
2019-03-26T18:10:09.339Z,9.70
2019-03-26T18:12:46.690Z,10.25
2019-03-26T18:16:12.278Z,10.38
2019-03-26T18:18:46.537Z,10.95
2019-03-26T18:21:31.294Z,9.45
2019-03-26T18:24:05.888Z,10.50
2019-03-26T18:29:10.688Z,9.98
2019-03-26T18:31:43.410Z,10.32
2019-03-26T18:34:16.048Z,8.70
2019-03-26T18:36:50.411Z,9.88
2019-03-26T18:41:57.769Z,9.85
2019-03-26T18:44:36.723Z,8.38
2019-03-26T18:47:09.296Z,8.90
2019-03-26T18:49:47.482Z,9.30
2019-03-26T18:52:42.409Z,9.73
2019-03-26T18:55:17.372Z,9.50
2019-03-26T18:58:09.569Z,9.20
2019-03-26T19:00:43.690Z,8.68
2019-03-26T19:03:22.621Z,9.50
2019-03-26T19:05:55.363Z,8.50
2019-03-26T19:08:27.774Z,8.90
2019-03-26T19:11:00.342Z,8.13
2019-03-26T19:13:38.484Z,8.80
2019-03-26T19:18:44.385Z,8.08
2019-03-26T19:21:16.819Z,8.53
2019-03-26T19:24:03.050Z,8.78
2019-03-26T19:26:29.208Z,9.05
2019-03-26T19:28:59.246Z,8.83
2019-03-26T19:31:31.876Z,9.40
2019-03-26T19:34:07.618Z,9.10
2019-03-26T19:36:40.307Z,7.83
2019-03-26T19:39:12.727Z,9.08
2019-03-26T19:41:45.604Z,9.88
2019-03-26T19:44:18.287Z,9.15
2019-03-26T19:46:51.062Z,8.60
2019-03-26T19:49:23.548Z,8.53
2019-03-26T19:51:57.495Z,9.28
2019-03-26T19:54:54.516Z,8.18
2019-03-26T19:57:31.690Z,8.53
2019-03-26T20:00:16.388Z,7.58
2019-03-26T20:05:20.788Z,8.78
2019-03-26T20:07:53.310Z,7.97
2019-03-26T20:10:27.659Z,8.68
2019-03-26T20:13:00.265Z,9.00
2019-03-26T20:15:35.822Z,9.45
2019-03-26T20:18:10.031Z,8.83
2019-03-26T20:20:42.447Z,9.35
2019-03-26T20:25:46.762Z,10.23
2019-03-26T20:28:19.339Z,10.75
2019-03-26T20:30:51.852Z,11.08
2019-03-26T20:33:24.308Z,10.40
2019-03-26T20:35:57.085Z,10.75
2019-03-26T20:38:29.625Z,11.40
2019-03-26T20:41:02.307Z,11.70
2019-03-26T20:43:37.426Z,11.55
2019-03-26T20:46:10.516Z,12.20
2019-03-26T20:48:43.306Z,12.35
2019-03-26T20:51:15.767Z,11.90
2019-03-26T20:53:48.317Z,10.65
2019-03-26T20:58:53.317Z,11.12
2019-03-26T21:03:57.570Z,11.03
2019-03-26T21:06:30.291Z,10.05
2019-03-26T21:09:02.602Z,11.43
2019-03-26T21:11:36.602Z,11.83
2019-03-26T21:14:12.307Z,11.08
2019-03-26T21:16:44.873Z,11.93
2019-03-26T21:19:17.353Z,12.33
2019-03-26T21:21:52.860Z,10.88
2019-03-26T21:24:24.141Z,12.15
2019-03-26T21:26:56.675Z,11.50
2019-03-26T21:29:29.400Z,11.70
2019-03-26T21:34:36.433Z,12.40
2019-03-26T21:37:11.604Z,12.85
2019-03-26T21:39:44.291Z,11.68
2019-03-26T21:42:18.327Z,12.15
2019-03-26T21:44:50.625Z,11.45
2019-03-26T21:47:23.309Z,11.20
2019-03-26T21:49:55.821Z,11.85
2019-03-26T21:52:28.445Z,11.90
2019-03-26T21:57:32.838Z,12.73
2019-03-26T22:00:08.486Z,13.05
2019-03-26T22:02:42.779Z,11.95
2019-03-26T22:05:15.689Z,11.93
2019-03-26T22:07:48.298Z,11.90
2019-03-26T22:10:21.288Z,12.07
2019-03-26T22:12:54.030Z,11.50
2019-03-26T22:15:26.558Z,11.70
2019-03-26T22:17:59.298Z,11.05
2019-03-26T22:20:31.718Z,12.05
2019-03-26T22:23:04.414Z,11.53
2019-03-26T22:25:36.922Z,11.15
2019-03-26T22:28:09.351Z,10.98
2019-03-26T22:32:48.597Z,11.40
2019-03-26T22:35:21.085Z,10.98
2019-03-26T22:37:53.405Z,11.70
2019-03-26T22:42:57.442Z,11.85
2019-03-26T22:45:29.897Z,11.50
2019-03-26T22:48:03.042Z,12.00
2019-03-26T22:50:35.444Z,10.98
2019-03-26T22:53:07.827Z,12.68
2019-03-26T22:55:41.395Z,12.43
2019-03-26T23:00:46.275Z,10.60
2019-03-26T23:03:20.319Z,11.68
2019-03-26T23:05:52.690Z,11.60
2019-03-26T23:08:25.293Z,11.15
2019-03-26T23:10:57.753Z,11.53
2019-03-26T23:13:30.303Z,11.50
2019-03-26T23:18:34.650Z,12.07
2019-03-26T23:21:07.341Z,11.83
2019-03-26T23:23:39.785Z,11.50
2019-03-26T23:26:12.324Z,11.20
2019-03-26T23:28:44.694Z,11.20
2019-03-26T23:31:17.360Z,11.28
2019-03-26T23:33:49.697Z,10.75
2019-03-26T23:36:22.339Z,10.38
2019-03-26T23:38:54.701Z,10.60
2019-03-26T23:41:27.350Z,10.78
2019-03-26T23:43:59.802Z,9.53
2019-03-26T23:46:32.402Z,11.05
2019-03-26T23:49:04.793Z,10.23
2019-03-26T23:51:37.293Z,10.65
2019-03-26T23:54:09.642Z,11.35
2019-03-26T23:56:42.301Z,10.82
2019-03-26T23:59:14.938Z,10.90
